• Join FlightAware (Why Join?)
  • Login
  • US Flag 
06:55PM EDT


 

Airport Tracker/Info


-or-


 

Live Flight TrackerFlight Track Log ✈ ASQ5181 ✈ 23-Apr-2013 ✈ KEWR - KATL

Flight Track Log - Related Links

Times and Time Zones

All times are in EDT time to prevent confusion due to time zone crossing. See the ASQ5181 flight status page for this flight to view local times or setup timezone preferences in your user account.

Time Position Orientation Groundspeed Altitude Reporting Facility
EDT Latitude Longitude Course Direction KTS MPH feet Rate Location/Type
10:11PM 40.7500 -74.1167 252° West 239 275 3,000  Level New York TRACON
10:12PM 40.7667 -74.2000 285° West 275 316 3,700 2,100 Climbing New York TRACON
10:13PM 40.7333 -74.2833 242° Southwest 274 315 7,000 3,000 Climbing New York TRACON
10:14PM 40.7167 -74.4000 259° West 299 344 10,000 2,160 Climbing New York TRACON
10:17PM 40.5574 -74.9870 252° West  Level FlightAware Approximate
10:17PM 40.6594 -74.6775 255° West 373 429 14,200  Level New York Center
10:18PM 40.6347 -74.7964 255° West 383 441 16,500 2,220 Climbing New York Center
10:19PM 40.6022 -74.9475 254° West 394 453 18,700 1,920 Climbing New York Center
10:20PM 40.5425 -75.0478 232° Southwest 394 453 20,400 1,620 Climbing New York Center
10:21PM 40.4653 -75.1631 229° Southwest 402 463 22,100 1,620 Climbing New York Center
10:22PM 40.3878 -75.2806 229° Southwest 424 488 23,600 1,320 Climbing New York Center
10:23PM 40.3100 -75.4117 232° Southwest 440 506 24,800 1,260 Climbing New York Center
10:24PM 40.2442 -75.5461 237° Southwest 452 520 26,200 1,500 Climbing New York Center
10:25PM 40.1744 -75.6689 233° Southwest 446 513 27,900 840 Climbing New York Center
10:26PM 40.0750 -75.8003 225° Southwest 446 513 27,900  Level New York Center
10:27PM 40.0111 -75.9311 238° Southwest 446 513 28,000 960 Climbing New York Center
10:28PM 39.9572 -76.0653 242° Southwest 435 501 29,900 1,740 Climbing New York Center
10:29PM 39.8969 -76.1961 239° Southwest 422 486 31,600 1,140 Climbing New York Center
10:31PM 39.7228 -76.4953 233° Southwest 435 501 34,000 660 Climbing Washington Center
10:32PM 39.6342 -76.6369 231° Southwest 447 514 34,000  Level Washington Center
10:33PM 39.5578 -76.7678 233° Southwest 463 533 34,000  Level Washington Center
10:34PM 39.4878 -76.9064 237° Southwest 468 539 34,000  Level Washington Center
10:35PM 39.4319 -77.0533 244° Southwest 462 532 34,000  Level Washington Center
10:36PM 39.3367 -77.1614 221° Southwest 455 524 34,000  Level Washington Center
10:37PM 39.2311 -77.2636 217° Southwest 461 531 34,000  Level Washington Center
10:38PM 39.1294 -77.3708 219° Southwest 467 537 34,000  Level Washington Center
10:39PM 39.0300 -77.4728 219° Southwest 467 537 34,000  Level Washington Center
10:40PM 38.9367 -77.5664 218° Southwest 472 543 34,000  Level Washington Center
10:41PM 38.8372 -77.6678 218° Southwest 472 543 34,000  Level Washington Center
10:42PM 38.7331 -77.7792 220° Southwest 488 562 34,000  Level Washington Center
10:43PM 38.6331 -77.8825 219° Southwest 482 555 34,000  Level Washington Center
10:44PM 38.5514 -78.0022 229° Southwest 464 534 34,000  Level Washington Center
10:45PM 38.4819 -78.1353 236° Southwest 458 527 34,000  Level Washington Center
10:46PM 38.4103 -78.2653 235° Southwest 458 527 34,000  Level Washington Center
10:47PM 38.3386 -78.3978 235° Southwest 463 533 34,000  Level Washington Center
10:48PM 38.2644 -78.5297 234° Southwest 463 533 34,000  Level Washington Center
10:49PM 38.1947 -78.6564 235° Southwest 463 533 34,000  Level Washington Center
10:50PM 38.1117 -78.7956 233° Southwest 457 526 34,000  Level Washington Center
10:51PM 38.0353 -78.9189 232° Southwest 457 526 34,000  Level Washington Center
10:52PM 37.9486 -79.0336 226° Southwest 457 526 34,000  Level Washington Center
10:53PM 37.8703 -79.1511 230° Southwest 452 520 34,000  Level Washington Center
10:54PM 37.7981 -79.2581 230° Southwest 447 514 34,000  Level Washington Center
10:55PM 37.7172 -79.3750 229° Southwest 447 514 34,000  Level Washington Center
10:56PM 37.6278 -79.5042 229° Southwest 447 514 34,000  Level Washington Center
10:58PM 37.4650 -79.7250 227° Southwest 454 522 34,000  Level Atlanta Center
10:59PM 37.3814 -79.8367 227° Southwest 454 522 34,000  Level Atlanta Center
11:00PM 37.2956 -79.9483 226° Southwest 454 522 34,000  Level Atlanta Center
11:01PM 37.2194 -80.0486 226° Southwest 448 516 34,000  Level Atlanta Center
11:02PM 37.1375 -80.1597 227° Southwest 448 516 34,000  Level Atlanta Center
11:03PM 37.0578 -80.2781 230° Southwest 442 509 34,000  Level Atlanta Center
11:04PM 36.9800 -80.3908 229° Southwest 442 509 34,000  Level Atlanta Center
11:05PM 36.8942 -80.5219 231° Southwest 442 509 34,000  Level Atlanta Center
11:06PM 36.8139 -80.6344 228° Southwest 442 509 34,000  Level Atlanta Center
11:07PM 36.7417 -80.7386 229° Southwest 442 509 34,000  Level Atlanta Center
11:08PM 36.6492 -80.8614 227° Southwest 442 509 34,000  Level Atlanta Center
11:09PM 36.5622 -80.9733 226° Southwest 447 514 34,000  Level Atlanta Center
11:10PM 36.4775 -81.0850 227° Southwest 447 514 34,000  Level Atlanta Center
11:11PM 36.3925 -81.1992 227° Southwest 458 527 34,000  Level Atlanta Center
11:12PM 36.3094 -81.3078 227° Southwest 458 527 34,000  Level Atlanta Center
11:13PM 36.2222 -81.4186 226° Southwest 452 520 34,000  Level Atlanta Center
11:14PM 36.1369 -81.5294 226° Southwest 457 526 34,000  Level Atlanta Center
11:15PM 36.0514 -81.6400 226° Southwest 451 519 34,000  Level Atlanta Center
11:16PM 35.9639 -81.7503 226° Southwest 453 521 34,000  Level Atlanta Center
11:17PM 35.8783 -81.8631 227° Southwest 458 527 34,000  Level Atlanta Center
11:18PM 35.7903 -81.9625 223° Southwest 452 520 34,000  Level Atlanta Center
11:19PM 35.6983 -82.0672 223° Southwest 452 520 34,000  Level Atlanta Center
11:20PM 35.6103 -82.1714 224° Southwest 447 514 34,000  Level Atlanta Center
11:21PM 35.5178 -82.2731 222° Southwest 447 514 34,000 -420 Level Atlanta Center
11:22PM 35.4297 -82.3819 225° Southwest 447 514 33,200 -900 Descending Atlanta Center
11:23PM 35.3536 -82.4728 224° Southwest 442 509 32,300 -1,080 Descending Atlanta Center
11:24PM 35.2611 -82.5814 224° Southwest 429 494 31,100 -1,140 Descending Atlanta Center
11:25PM 35.1808 -82.6894 228° Southwest 429 494 30,100 -1,020 Descending Atlanta Center
11:26PM 35.1028 -82.7947 228° Southwest 424 488 29,100 -1,020 Descending Atlanta Center
11:27PM 35.0244 -82.9000 228° Southwest 424 488 28,100 -1,020 Descending Atlanta Center
11:28PM 34.9481 -82.9997 227° Southwest 419 482 27,100 -1,380 Descending Atlanta Center
11:29PM 34.8717 -83.0969 226° Southwest 408 470 25,400 -1,740 Descending Atlanta Center
11:30PM 34.7911 -83.1864 222° Southwest 401 461 23,700 -1,680 Descending Atlanta Center
11:31PM 34.7081 -83.2783 222° Southwest 395 455 22,100 -1,560 Descending Atlanta Center
11:32PM 34.6333 -83.3469 217° Southwest 389 448 20,600 -1,680 Descending Atlanta Center
11:33PM 34.5544 -83.4308 221° Southwest 384 442 18,800 -1,680 Descending Atlanta Center
11:34PM 34.4736 -83.5122 220° Southwest 379 436 17,300 -1,620 Descending Atlanta Center
11:35PM 34.3944 -83.5881 218° Southwest 373 429 15,600 -1,680 Descending Atlanta Center
11:36PM 34.3114 -83.6567 214° Southwest 373 429 14,000 -840 Descending Atlanta Center
11:37PM 34.2300 -83.7222 214° Southwest 360 414 14,000  Level Atlanta Center
11:38PM 34.1425 -83.7928 214° Southwest 354 407 14,000 -120 Level Atlanta Center
11:39PM 34.0697 -83.8658 220° Southwest 354 407 13,800 -660 Descending Atlanta Center
11:39PM 34.0500 -83.9000 235° Southwest 338 389 13,100 -1,500 Descending Atlanta TRACON
11:40PM 34.0167 -84.0000 248° West 333 383 11,700 -1,080 Descending Atlanta TRACON
11:41PM 33.9667 -84.1000 239° Southwest 324 373 11,000 -360 Descending Atlanta TRACON
11:42PM 33.9333 -84.2000 248° West 329 379 11,000 -120 Level Atlanta TRACON
11:43PM 33.8833 -84.3000 239° Southwest 313 360 10,800 -900 Descending Atlanta TRACON
11:44PM 33.8500 -84.3833 244° Southwest 278 320 9,200 -1,800 Descending Atlanta TRACON
11:45PM 33.8167 -84.4833 248° West 268 308 7,300 -1,800 Descending Atlanta TRACON
11:46PM 33.8000 -84.5333 248° West 259 298 6,000 -1,620 Descending Atlanta TRACON
11:47PM 33.7667 -84.5833 231° Southwest 261 300 4,600 -1,320 Descending Atlanta TRACON
11:48PM 33.7000 -84.5667 168° South 227 261 3,600 -960 Descending Atlanta TRACON
11:49PM 33.6667 -84.5167 129° Southeast 155 178 2,700 -900 Descending Atlanta TRACON
11:50PM 33.6500 -84.4833 121° Southeast 140 161 1,900 -840 Descending Atlanta TRACON
11:52PM 33.6367 -84.4279 118° Southeast  Level Estimated
11:59PM 33.6367 -84.4279 118° Southeast  Level Estimated
12:00AM 33.6367 -84.4279 118° Southeast  Level Estimated